createdAt,value
2023-01-21T00:01:15.227Z,1.50
2023-01-21T00:03:42.735Z,2.83
2023-01-21T00:06:10.388Z,2.03
2023-01-21T00:08:37.748Z,2.75
2023-01-21T00:11:09.639Z,1.95
2023-01-21T00:13:37.348Z,1.55
2023-01-21T00:16:05.551Z,1.95
2023-01-21T00:18:33.541Z,1.73
2023-01-21T00:21:01.501Z,1.92
2023-01-21T00:23:28.776Z,1.77
2023-01-21T00:26:04.377Z,1.80
2023-01-21T00:28:33.454Z,1.83
2023-01-21T00:31:02.729Z,1.45
2023-01-21T00:33:32.306Z,2.13
2023-01-21T00:36:11.314Z,1.63
2023-01-21T00:38:38.917Z,1.63
2023-01-21T00:41:09.238Z,1.58
2023-01-21T00:43:36.725Z,1.42
2023-01-21T00:46:04.233Z,1.20
2023-01-21T00:48:31.854Z,1.73
2023-01-21T00:51:00.928Z,2.40
2023-01-21T00:53:31.251Z,1.27
2023-01-21T00:56:07.455Z,1.60
2023-01-21T00:58:35.623Z,1.65
2023-01-21T01:01:09.184Z,2.03
2023-01-21T01:03:37.957Z,1.83
2023-01-21T01:06:10.814Z,1.80
2023-01-21T01:08:38.442Z,2.30
2023-01-21T01:11:06.450Z,1.20
2023-01-21T01:13:35.084Z,1.55
2023-01-21T01:16:02.834Z,1.60
2023-01-21T01:18:33.670Z,1.70
2023-01-21T01:21:02.170Z,1.85
2023-01-21T01:23:29.610Z,1.80
2023-01-21T01:26:05.292Z,2.72
2023-01-21T01:28:34.003Z,1.42
2023-01-21T01:31:03.755Z,1.40
2023-01-21T01:33:31.021Z,1.67
2023-01-21T01:36:12.154Z,1.30
2023-01-21T01:38:39.423Z,1.30
2023-01-21T01:41:06.726Z,1.83
2023-01-21T01:43:55.090Z,1.55
2023-01-21T01:46:23.669Z,1.65
2023-01-21T01:49:15.984Z,1.60
2023-01-21T01:51:54.834Z,2.05
2023-01-21T01:54:28.792Z,2.42
2023-01-21T01:56:58.956Z,1.42
2023-01-21T01:59:27.276Z,2.17
2023-01-21T02:01:55.182Z,1.73
2023-01-21T02:04:27.364Z,1.85
2023-01-21T02:06:55.907Z,1.90
2023-01-21T02:09:27.962Z,1.83
2023-01-21T02:11:55.852Z,1.10
2023-01-21T02:14:23.255Z,1.80
2023-01-21T02:17:17.420Z,1.73
2023-01-21T02:20:16.001Z,2.10
2023-01-21T02:23:21.830Z,1.77
2023-01-21T02:26:19.496Z,1.60
2023-01-21T02:29:01.110Z,1.90
2023-01-21T02:31:59.118Z,2.15
2023-01-21T02:34:49.412Z,2.03
2023-01-21T02:37:44.657Z,1.75
2023-01-21T02:40:25.519Z,1.40
2023-01-21T02:43:23.141Z,1.80
2023-01-21T02:45:59.593Z,1.77
2023-01-21T02:48:33.285Z,1.50
2023-01-21T02:51:02.282Z,1.65
2023-01-21T02:53:31.805Z,2.03
2023-01-21T02:56:08.560Z,1.40
2023-01-21T02:58:39.291Z,2.03
2023-01-21T03:01:24.538Z,1.67
2023-01-21T03:04:19.789Z,1.70
2023-01-21T03:06:50.424Z,2.22
2023-01-21T03:09:26.911Z,1.75
2023-01-21T03:12:09.056Z,1.63
2023-01-21T03:15:23.056Z,1.33
2023-01-21T03:17:57.782Z,2.08
2023-01-21T03:20:30.763Z,1.48
2023-01-21T03:23:05.690Z,2.33
2023-01-21T03:25:35.236Z,1.63
2023-01-21T03:28:07.942Z,2.42
2023-01-21T03:30:40.291Z,1.60
2023-01-21T03:33:09.712Z,1.83
2023-01-21T03:35:41.165Z,1.85
2023-01-21T03:38:35.241Z,1.92
2023-01-21T03:41:09.696Z,1.92
2023-01-21T03:43:37.028Z,1.77
2023-01-21T03:46:15.196Z,2.25
2023-01-21T03:48:58.552Z,1.52
2023-01-21T03:51:49.558Z,2.00
2023-01-21T03:54:16.925Z,1.67
2023-01-21T03:56:44.116Z,2.25
2023-01-21T03:59:11.894Z,2.35
2023-01-21T04:01:39.712Z,2.00
2023-01-21T04:04:07.582Z,2.15
2023-01-21T04:06:36.135Z,1.98
2023-01-21T04:09:05.078Z,2.65
2023-01-21T04:11:32.641Z,2.08
2023-01-21T04:14:00.179Z,1.73
2023-01-21T04:16:27.378Z,2.45
2023-01-21T04:18:54.591Z,1.58
2023-01-21T04:21:21.777Z,1.98
2023-01-21T04:23:49.159Z,2.42
2023-01-21T04:26:16.637Z,1.77
2023-01-21T04:28:44.057Z,2.33
2023-01-21T04:31:11.264Z,2.50
2023-01-21T04:33:38.780Z,2.28
2023-01-21T04:36:06.178Z,1.50
2023-01-21T04:38:33.535Z,2.30
2023-01-21T04:41:00.705Z,2.10
2023-01-21T04:43:27.904Z,2.22
2023-01-21T04:45:55.098Z,2.08
2023-01-21T04:48:22.317Z,1.95
2023-01-21T04:50:49.540Z,2.35
2023-01-21T04:53:16.732Z,2.58
2023-01-21T04:55:43.881Z,2.58
2023-01-21T04:58:11.063Z,2.70
2023-01-21T05:00:38.412Z,2.38
2023-01-21T05:03:05.763Z,2.17
2023-01-21T05:05:32.914Z,2.13
2023-01-21T05:08:00.192Z,2.20
2023-01-21T05:10:27.433Z,3.05
2023-01-21T05:12:54.622Z,3.45
2023-01-21T05:15:22.010Z,2.17
2023-01-21T05:17:49.218Z,2.33
2023-01-21T05:20:17.357Z,2.00
2023-01-21T05:22:48.877Z,2.28
2023-01-21T05:25:16.847Z,2.95
2023-01-21T05:27:44.196Z,2.75
2023-01-21T05:30:11.743Z,2.50
2023-01-21T05:32:39.941Z,3.42
2023-01-21T05:35:07.560Z,3.00
2023-01-21T05:37:34.745Z,3.00
2023-01-21T05:40:01.936Z,2.08
2023-01-21T05:42:29.108Z,2.40
2023-01-21T05:44:56.780Z,2.50
2023-01-21T05:47:23.932Z,3.05
2023-01-21T05:49:51.117Z,2.72
2023-01-21T05:52:18.421Z,3.00
2023-01-21T05:55:00.542Z,2.25
2023-01-21T05:57:28.871Z,2.50
2023-01-21T05:59:56.152Z,2.35
2023-01-21T06:02:23.599Z,2.28
2023-01-21T06:04:50.797Z,2.15
2023-01-21T06:07:18.002Z,2.22
2023-01-21T06:09:45.234Z,3.13
2023-01-21T06:12:12.427Z,2.65
2023-01-21T06:14:39.694Z,3.28
2023-01-21T06:17:06.889Z,3.00
2023-01-21T06:19:34.173Z,2.60
2023-01-21T06:22:01.339Z,2.38
2023-01-21T06:24:28.493Z,2.28
2023-01-21T06:26:55.698Z,2.88
2023-01-21T06:29:23.011Z,2.95
2023-01-21T06:31:50.273Z,2.60
2023-01-21T06:34:17.578Z,2.85
2023-01-21T06:36:44.826Z,3.00
2023-01-21T06:39:12.148Z,2.90
2023-01-21T06:41:39.702Z,2.85
2023-01-21T06:44:07.179Z,3.78
2023-01-21T06:46:34.454Z,3.70
2023-01-21T06:49:01.715Z,2.88
2023-01-21T06:51:28.903Z,3.80
2023-01-21T06:53:56.060Z,3.10
2023-01-21T06:56:23.228Z,4.47
2023-01-21T06:58:50.442Z,3.78
2023-01-21T07:01:17.651Z,3.55
2023-01-21T07:03:44.865Z,3.42
2023-01-21T07:06:12.170Z,3.33
2023-01-21T07:08:39.347Z,4.30
2023-01-21T07:11:06.583Z,5.57
2023-01-21T07:13:33.779Z,5.07
2023-01-21T07:16:02.079Z,3.88
2023-01-21T07:18:29.455Z,3.17
2023-01-21T07:20:57.496Z,3.58
2023-01-21T07:23:24.797Z,3.60
2023-01-21T07:25:52.047Z,4.38
2023-01-21T07:28:19.390Z,4.03
2023-01-21T07:30:46.596Z,4.03
2023-01-21T07:33:13.850Z,3.47
2023-01-21T07:35:41.186Z,3.85
2023-01-21T07:38:08.342Z,3.70
2023-01-21T07:40:35.466Z,3.50
2023-01-21T07:43:02.672Z,3.33
2023-01-21T07:45:30.362Z,4.03
2023-01-21T07:47:57.529Z,4.18
2023-01-21T07:50:24.692Z,4.05
2023-01-21T07:52:54.655Z,3.53
2023-01-21T07:55:22.964Z,3.55
2023-01-21T07:57:50.138Z,3.47
2023-01-21T08:00:18.060Z,4.65
2023-01-21T08:02:45.277Z,4.55
2023-01-21T08:05:12.516Z,3.42
2023-01-21T08:07:39.678Z,4.15
2023-01-21T08:10:07.008Z,4.80
2023-01-21T08:12:34.314Z,4.20
2023-01-21T08:15:01.577Z,5.05
2023-01-21T08:17:28.795Z,4.15
2023-01-21T08:19:56.479Z,4.50
2023-01-21T08:22:25.838Z,4.75
2023-01-21T08:24:53.011Z,4.82
2023-01-21T08:27:20.237Z,5.35
2023-01-21T08:29:48.621Z,5.35
2023-01-21T08:32:16.149Z,3.75
2023-01-21T08:34:43.446Z,5.72
2023-01-21T08:37:10.928Z,4.90
2023-01-21T08:39:38.138Z,6.15
2023-01-21T08:42:05.352Z,4.78
2023-01-21T08:44:32.553Z,4.57
2023-01-21T08:46:59.756Z,5.43
2023-01-21T08:49:27.000Z,4.63
2023-01-21T08:51:54.429Z,5.47
2023-01-21T08:54:21.683Z,5.15
2023-01-21T08:56:48.925Z,5.30
2023-01-21T08:59:17.016Z,4.95
2023-01-21T09:01:44.273Z,5.35
2023-01-21T09:04:11.498Z,6.38
2023-01-21T09:06:38.761Z,5.93
2023-01-21T09:09:06.112Z,5.43
2023-01-21T09:11:34.105Z,7.72
2023-01-21T09:14:03.611Z,5.30
2023-01-21T09:16:31.906Z,5.63
2023-01-21T09:19:00.332Z,5.50
2023-01-21T09:21:27.788Z,5.35
2023-01-21T09:23:55.524Z,6.18
2023-01-21T09:26:24.663Z,5.78
2023-01-21T09:29:01.548Z,6.03
2023-01-21T09:31:30.566Z,6.07
2023-01-21T09:34:03.743Z,6.63
2023-01-21T09:36:33.329Z,4.97
2023-01-21T09:39:00.983Z,6.07
2023-01-21T09:41:45.706Z,5.97
2023-01-21T09:47:23.622Z,6.38
2023-01-21T09:49:55.856Z,5.53
2023-01-21T09:52:41.666Z,6.65
2023-01-21T09:55:20.042Z,6.25
2023-01-21T09:58:35.989Z,7.80
2023-01-21T10:01:08.528Z,7.13
2023-01-21T10:03:48.164Z,6.93
2023-01-21T10:06:38.516Z,6.75
2023-01-21T10:09:27.355Z,7.43
2023-01-21T10:12:16.444Z,7.80
2023-01-21T10:14:54.000Z,7.35
2023-01-21T10:17:33.261Z,8.07
2023-01-21T10:20:28.206Z,7.85
2023-01-21T10:25:36.803Z,5.47
2023-01-21T10:28:33.017Z,7.30
2023-01-21T10:31:11.848Z,8.20
2023-01-21T10:33:39.065Z,7.45
2023-01-21T10:36:30.448Z,9.35
2023-01-21T10:39:16.463Z,9.13
2023-01-21T10:41:55.559Z,8.48
2023-01-21T10:45:00.703Z,8.45
2023-01-21T10:48:06.107Z,8.18
2023-01-21T10:53:44.318Z,7.38
2023-01-21T10:56:40.690Z,7.50
2023-01-21T10:59:13.020Z,6.47
2023-01-21T11:01:46.456Z,7.78
2023-01-21T11:04:18.940Z,6.87
2023-01-21T11:06:52.559Z,7.90
2023-01-21T11:09:19.919Z,9.32
2023-01-21T11:11:47.457Z,8.68
2023-01-21T11:14:14.682Z,8.07
2023-01-21T11:16:50.093Z,8.07
2023-01-21T11:19:31.770Z,7.75
2023-01-21T11:22:03.954Z,7.80
2023-01-21T11:24:41.422Z,7.90
2023-01-21T11:27:33.503Z,6.93
2023-01-21T11:30:01.213Z,7.43
2023-01-21T11:32:30.133Z,7.47
2023-01-21T11:35:21.816Z,8.50
2023-01-21T11:37:49.326Z,8.00
2023-01-21T11:40:25.408Z,8.05
2023-01-21T11:42:55.093Z,7.40
2023-01-21T11:45:36.817Z,8.50
2023-01-21T11:48:36.834Z,10.30
2023-01-21T11:51:07.726Z,8.25
2023-01-21T11:53:35.245Z,8.82
2023-01-21T11:56:03.875Z,8.63
2023-01-21T11:58:32.750Z,8.55
2023-01-21T12:01:03.315Z,7.50
2023-01-21T12:03:35.335Z,10.43
2023-01-21T12:06:02.995Z,8.82
2023-01-21T12:08:33.419Z,9.77
2023-01-21T12:11:02.666Z,9.18
2023-01-21T12:14:08.300Z,8.65
2023-01-21T12:16:53.271Z,8.18
2023-01-21T12:19:53.309Z,10.80
2023-01-21T12:22:57.295Z,8.13
2023-01-21T12:25:31.955Z,6.70
2023-01-21T12:28:23.830Z,7.15
2023-01-21T12:31:10.251Z,8.23
2023-01-21T12:34:09.270Z,7.32
2023-01-21T12:36:46.898Z,7.55
2023-01-21T12:39:18.935Z,7.38
2023-01-21T12:41:53.907Z,6.43
2023-01-21T12:44:36.751Z,6.13
2023-01-21T12:47:21.447Z,6.95
2023-01-21T12:52:40.783Z,8.07
2023-01-21T12:55:27.024Z,6.80
2023-01-21T12:58:01.435Z,6.40
2023-01-21T13:00:39.145Z,6.43
2023-01-21T13:03:24.537Z,5.70
2023-01-21T13:06:07.967Z,5.95
2023-01-21T13:08:44.101Z,6.68
2023-01-21T13:11:19.615Z,5.15
2023-01-21T13:14:17.326Z,4.30
2023-01-21T13:16:53.103Z,5.43
2023-01-21T13:19:20.675Z,4.28
2023-01-21T13:22:02.130Z,4.53
2023-01-21T13:24:35.293Z,4.72
2023-01-21T13:27:16.901Z,4.63
2023-01-21T13:30:17.845Z,4.30
2023-01-21T13:33:07.174Z,4.82
2023-01-21T13:36:06.418Z,4.50
2023-01-21T13:38:37.019Z,4.95
2023-01-21T13:41:18.748Z,4.93
2023-01-21T13:44:18.521Z,7.18
2023-01-21T13:47:00.633Z,3.35
2023-01-21T13:49:50.880Z,3.88
2023-01-21T13:52:28.792Z,3.25
2023-01-21T13:55:08.729Z,3.28
2023-01-21T13:57:51.545Z,3.92
2023-01-21T14:00:26.832Z,2.97
2023-01-21T14:03:09.129Z,3.80
2023-01-21T14:05:53.073Z,3.97
2023-01-21T14:08:29.880Z,4.40
2023-01-21T14:11:05.052Z,2.53
2023-01-21T14:13:40.511Z,4.80
2023-01-21T14:16:25.272Z,4.53
2023-01-21T14:22:02.651Z,4.07
2023-01-21T14:25:01.252Z,3.90
2023-01-21T14:27:53.818Z,3.03
2023-01-21T14:30:50.658Z,3.25
2023-01-21T14:33:28.932Z,4.10
2023-01-21T14:36:12.656Z,4.00
2023-01-21T14:39:07.425Z,4.95
2023-01-21T14:42:09.652Z,4.05
2023-01-21T14:44:49.758Z,4.15
2023-01-21T14:47:31.952Z,3.75
2023-01-21T14:50:00.662Z,4.63
2023-01-21T14:52:34.958Z,4.63
2023-01-21T14:55:03.134Z,4.28
2023-01-21T14:57:37.609Z,4.63
2023-01-21T15:00:46.837Z,4.82
2023-01-21T15:03:28.995Z,3.72
2023-01-21T15:06:09.267Z,3.95
2023-01-21T15:08:47.178Z,3.97
2023-01-21T15:11:21.674Z,4.20
2023-01-21T15:14:02.277Z,3.50
2023-01-21T15:16:42.137Z,3.70
2023-01-21T15:19:15.097Z,4.18
2023-01-21T15:22:18.007Z,3.28
2023-01-21T15:25:03.351Z,3.60
2023-01-21T15:27:33.157Z,3.85
2023-01-21T15:30:04.192Z,2.85
2023-01-21T15:32:34.278Z,3.28
2023-01-21T15:35:19.481Z,2.28
2023-01-21T15:38:04.079Z,3.00
2023-01-21T15:40:53.562Z,3.13
2023-01-21T15:43:52.414Z,2.72
2023-01-21T15:46:41.766Z,2.78
2023-01-21T15:49:31.527Z,2.95
2023-01-21T15:52:23.980Z,3.05
2023-01-21T15:55:01.774Z,3.17
2023-01-21T15:57:54.891Z,2.45
2023-01-21T16:01:08.024Z,2.05
2023-01-21T16:03:44.623Z,3.22
2023-01-21T16:06:32.175Z,2.55
2023-01-21T16:09:16.140Z,2.50
2023-01-21T16:12:01.139Z,2.57
2023-01-21T16:15:01.540Z,3.42
2023-01-21T16:18:08.167Z,2.30
2023-01-21T16:20:36.796Z,2.38
2023-01-21T16:23:08.305Z,2.63
2023-01-21T16:25:46.899Z,2.65
2023-01-21T16:28:15.834Z,2.38
2023-01-21T16:30:56.643Z,2.38
2023-01-21T16:33:25.408Z,2.83
2023-01-21T16:36:00.327Z,2.67
2023-01-21T16:38:31.372Z,2.95
2023-01-21T16:41:08.831Z,2.63
2023-01-21T16:43:50.117Z,2.88
2023-01-21T16:46:24.460Z,2.42
2023-01-21T16:48:57.888Z,2.85
2023-01-21T16:51:36.976Z,3.42
2023-01-21T16:54:34.965Z,3.60
2023-01-21T16:57:20.553Z,2.55
2023-01-21T16:59:49.241Z,2.78
2023-01-21T17:02:25.931Z,3.05
2023-01-21T17:04:57.782Z,3.42
2023-01-21T17:07:31.687Z,2.58
2023-01-21T17:10:02.975Z,3.63
2023-01-21T17:12:34.671Z,3.60
2023-01-21T17:15:20.137Z,2.90
2023-01-21T17:17:48.934Z,2.78
2023-01-21T17:20:35.744Z,3.88
2023-01-21T17:23:14.016Z,3.75
2023-01-21T17:25:42.730Z,2.70
2023-01-21T17:28:39.991Z,2.65
2023-01-21T17:31:18.149Z,2.92
2023-01-21T17:34:00.809Z,2.72
2023-01-21T17:36:35.522Z,3.17
2023-01-21T17:39:07.348Z,2.95
2023-01-21T17:41:38.146Z,3.95
2023-01-21T17:44:22.977Z,4.05
2023-01-21T17:46:55.451Z,3.47
2023-01-21T17:49:26.704Z,3.28
2023-01-21T17:51:57.056Z,3.70
2023-01-21T17:54:27.660Z,3.33
2023-01-21T17:57:00.865Z,5.00
2023-01-21T17:59:34.975Z,3.95
2023-01-21T18:02:05.629Z,8.60
2023-01-21T18:04:33.585Z,4.90
2023-01-21T18:07:02.362Z,5.05
2023-01-21T18:09:34.602Z,8.77
2023-01-21T18:12:03.230Z,5.78
2023-01-21T18:14:35.065Z,5.05
2023-01-21T18:17:19.451Z,5.90
2023-01-21T18:19:47.368Z,8.15
2023-01-21T18:22:22.491Z,6.43
2023-01-21T18:24:50.141Z,6.70
2023-01-21T18:27:18.042Z,6.35
2023-01-21T18:29:45.996Z,5.40
2023-01-21T18:32:17.320Z,6.75
2023-01-21T18:34:47.022Z,5.80
2023-01-21T18:37:17.266Z,6.75
2023-01-21T18:39:45.305Z,6.88
2023-01-21T18:42:18.490Z,7.30
2023-01-21T18:44:49.455Z,6.43
2023-01-21T18:47:18.477Z,6.97
2023-01-21T18:49:49.592Z,7.20
2023-01-21T18:52:19.864Z,5.97
2023-01-21T18:54:48.065Z,7.10
2023-01-21T18:57:20.285Z,7.97
2023-01-21T18:59:48.396Z,8.30
2023-01-21T19:02:18.931Z,8.15
2023-01-21T19:04:47.810Z,8.85
2023-01-21T19:07:22.234Z,9.65
2023-01-21T19:09:51.334Z,7.53
2023-01-21T19:12:24.571Z,10.68
2023-01-21T19:14:53.734Z,9.57
2023-01-21T19:17:30.342Z,10.80
2023-01-21T19:19:58.562Z,11.15
2023-01-21T19:22:26.500Z,10.63
2023-01-21T19:24:54.269Z,12.70
2023-01-21T19:27:35.752Z,11.52
2023-01-21T19:30:11.405Z,10.90
2023-01-21T19:32:39.604Z,11.25
2023-01-21T19:35:08.027Z,11.77
2023-01-21T19:37:45.139Z,13.70
2023-01-21T19:40:21.665Z,11.23
2023-01-21T19:42:49.599Z,11.80
2023-01-21T19:45:18.979Z,10.93
2023-01-21T19:47:49.680Z,11.88
2023-01-21T19:50:20.392Z,11.55
2023-01-21T19:52:51.008Z,11.93
2023-01-21T19:55:25.953Z,11.77
2023-01-21T19:58:00.388Z,12.60
2023-01-21T20:03:01.880Z,11.85
2023-01-21T20:05:34.272Z,12.15
2023-01-21T20:08:02.624Z,13.02
2023-01-21T20:10:31.343Z,12.82
2023-01-21T20:12:59.765Z,12.77
2023-01-21T20:15:32.533Z,12.13
2023-01-21T20:18:02.567Z,12.38
2023-01-21T20:20:32.223Z,14.73
2023-01-21T20:23:01.036Z,14.40
2023-01-21T20:25:39.232Z,13.80
2023-01-21T20:28:30.914Z,12.95
2023-01-21T20:31:02.841Z,13.60
2023-01-21T20:33:30.676Z,13.27
2023-01-21T20:35:58.848Z,12.90
2023-01-21T20:38:32.219Z,13.52
2023-01-21T20:41:01.299Z,14.02
2023-01-21T20:43:29.574Z,14.00
2023-01-21T20:46:02.151Z,14.07
2023-01-21T20:48:36.507Z,13.70
2023-01-21T20:53:33.596Z,12.45
2023-01-21T20:56:07.371Z,13.52
2023-01-21T20:58:38.514Z,13.95
2023-01-21T21:04:09.693Z,15.38
2023-01-21T21:06:38.828Z,14.98
2023-01-21T21:09:13.961Z,15.13
2023-01-21T21:12:03.122Z,15.07
2023-01-21T21:14:36.575Z,14.35
2023-01-21T21:17:23.228Z,14.00
2023-01-21T21:20:40.931Z,13.32
2023-01-21T21:23:23.984Z,15.73
2023-01-21T21:25:56.176Z,14.25
2023-01-21T21:29:14.688Z,14.27
2023-01-21T21:31:47.914Z,14.65
2023-01-21T21:34:24.884Z,15.48
2023-01-21T21:36:54.213Z,13.85
2023-01-21T21:39:37.964Z,13.98
2023-01-21T21:42:25.097Z,14.98
2023-01-21T21:44:54.398Z,14.80
2023-01-21T21:47:42.126Z,14.45
2023-01-21T21:50:17.644Z,15.85
2023-01-21T21:52:58.200Z,15.73
2023-01-21T21:56:19.886Z,13.73
2023-01-21T21:58:49.562Z,14.38
2023-01-21T22:01:23.884Z,17.55
2023-01-21T22:04:06.228Z,16.90
2023-01-21T22:06:50.110Z,16.52
2023-01-21T22:09:34.579Z,14.07
2023-01-21T22:12:20.409Z,15.95
2023-01-21T22:14:48.972Z,15.70
2023-01-21T22:17:37.059Z,16.60
2023-01-21T22:22:58.387Z,15.02
2023-01-21T22:25:37.576Z,15.20
2023-01-21T22:28:26.783Z,15.63
2023-01-21T22:31:12.791Z,16.63
2023-01-21T22:33:56.261Z,16.75
2023-01-21T22:36:59.299Z,15.55
2023-01-21T22:39:57.611Z,15.40
2023-01-21T22:42:26.600Z,16.63
2023-01-21T22:45:18.226Z,16.48
2023-01-21T22:47:50.602Z,16.15
2023-01-21T22:50:33.544Z,17.02
2023-01-21T22:53:32.104Z,14.55
2023-01-21T22:56:05.527Z,15.98
2023-01-21T22:58:49.275Z,17.00
2023-01-21T23:01:27.019Z,16.55
2023-01-21T23:04:00.373Z,14.88
2023-01-21T23:06:51.739Z,16.30
2023-01-21T23:09:23.409Z,17.42
2023-01-21T23:12:00.464Z,13.70
2023-01-21T23:14:35.836Z,15.18
2023-01-21T23:17:31.551Z,14.02
2023-01-21T23:20:01.509Z,13.50
2023-01-21T23:22:34.720Z,13.98
2023-01-21T23:25:27.757Z,13.20
2023-01-21T23:27:59.101Z,14.70
2023-01-21T23:30:28.607Z,13.93
2023-01-21T23:32:58.077Z,14.38
2023-01-21T23:36:16.416Z,12.75
2023-01-21T23:38:49.944Z,14.20
2023-01-21T23:42:09.796Z,13.50
2023-01-21T23:44:37.667Z,14.02
2023-01-21T23:47:05.230Z,12.98
2023-01-21T23:49:35.228Z,14.35
2023-01-21T23:52:05.914Z,13.63
2023-01-21T23:54:33.965Z,14.35
2023-01-21T23:57:01.672Z,13.95
2023-01-21T23:59:29.070Z,13.82
